sensor_id;sensor_type;location;lat;lon;timestamp;pressure;altitude;pressure_sealevel;temperature;humidity
71857;BME280;63344;46.980;28.882;2022-11-20T00:01:31;101127.72;;;1.36;86.12
71857;BME280;63344;46.980;28.882;2022-11-20T00:04:00;101111.06;;;1.30;86.28
71857;BME280;63344;46.980;28.882;2022-11-20T00:06:28;101115.38;;;1.23;86.38
71857;BME280;63344;46.980;28.882;2022-11-20T00:08:57;101122.41;;;1.29;86.55
71857;BME280;63344;46.980;28.882;2022-11-20T00:11:26;101112.78;;;1.25;86.92
71857;BME280;63344;46.980;28.882;2022-11-20T00:13:55;101099.66;;;1.18;86.86
71857;BME280;63344;46.980;28.882;2022-11-20T00:16:27;101093.53;;;1.15;87.13
71857;BME280;63344;46.980;28.882;2022-11-20T00:18:55;101089.97;;;1.05;87.78
71857;BME280;63344;46.980;28.882;2022-11-20T00:21:25;101089.06;;;1.02;87.77
71857;BME280;63344;46.980;28.882;2022-11-20T00:23:54;101097.81;;;1.02;88.11
71857;BME280;63344;46.980;28.882;2022-11-20T00:26:24;101089.09;;;1.05;88.35
71857;BME280;63344;46.980;28.882;2022-11-20T00:28:54;101084.72;;;1.01;88.18
71857;BME280;63344;46.980;28.882;2022-11-20T00:31:22;101104.81;;;1.06;88.46
71857;BME280;63344;46.980;28.882;2022-11-20T00:33:49;101110.91;;;1.05;88.62
71857;BME280;63344;46.980;28.882;2022-11-20T00:36:25;101116.13;;;1.07;88.37
71857;BME280;63344;46.980;28.882;2022-11-20T00:38:54;101119.63;;;1.04;88.23
71857;BME280;63344;46.980;28.882;2022-11-20T00:41:22;101097.75;;;0.96;88.44
71857;BME280;63344;46.980;28.882;2022-11-20T00:43:51;101097.78;;;0.99;88.60
71857;BME280;63344;46.980;28.882;2022-11-20T00:46:24;101102.97;;;0.94;89.17
71857;BME280;63344;46.980;28.882;2022-11-20T00:48:52;101102.09;;;0.94;89.25
71857;BME280;63344;46.980;28.882;2022-11-20T00:51:24;101104.69;;;0.91;89.14
71857;BME280;63344;46.980;28.882;2022-11-20T00:53:55;101095.03;;;0.85;89.81
71857;BME280;63344;46.980;28.882;2022-11-20T00:56:22;101109.84;;;0.85;89.79
71857;BME280;63344;46.980;28.882;2022-11-20T00:58:49;101120.31;;;0.85;89.75
71857;BME280;63344;46.980;28.882;2022-11-20T01:01:19;101118.59;;;0.87;89.71
71857;BME280;63344;46.980;28.882;2022-11-20T01:03:49;101108.09;;;0.84;89.68
71857;BME280;63344;46.980;28.882;2022-11-20T01:06:21;101123.81;;;0.87;89.97
71857;BME280;63344;46.980;28.882;2022-11-20T01:08:50;101106.31;;;0.76;90.05
71857;BME280;63344;46.980;28.882;2022-11-20T01:11:21;101118.53;;;0.81;89.88
71857;BME280;63344;46.980;28.882;2022-11-20T01:13:49;101102.84;;;0.84;90.45
71857;BME280;63344;46.980;28.882;2022-11-20T01:16:19;101079.28;;;0.76;90.21
71857;BME280;63344;46.980;28.882;2022-11-20T01:18:49;101094.97;;;0.77;90.58
71857;BME280;63344;46.980;28.882;2022-11-20T01:21:21;101094.06;;;0.72;90.83
71857;BME280;63344;46.980;28.882;2022-11-20T01:23:50;101101.00;;;0.72;91.05
71857;BME280;63344;46.980;28.882;2022-11-20T01:26:23;101099.28;;;0.71;91.00
71857;BME280;63344;46.980;28.882;2022-11-20T01:28:51;101080.94;;;0.66;91.16
71857;BME280;63344;46.980;28.882;2022-11-20T01:33:50;101052.94;;;0.56;92.28
71857;BME280;63344;46.980;28.882;2022-11-20T01:36:20;101053.84;;;0.56;92.07
71857;BME280;63344;46.980;28.882;2022-11-20T01:38:48;101049.38;;;0.48;92.21
71857;BME280;63344;46.980;28.882;2022-11-20T01:41:18;101057.31;;;0.55;92.30
71857;BME280;63344;46.980;28.882;2022-11-20T01:44:04;101070.34;;;0.54;92.46
71857;BME280;63344;46.980;28.882;2022-11-20T01:46:34;101064.25;;;0.50;92.71
71857;BME280;63344;46.980;28.882;2022-11-20T01:52:16;101090.44;;;0.56;92.42
71857;BME280;63344;46.980;28.882;2022-11-20T01:54:55;101075.63;;;0.57;91.89
71857;BME280;63344;46.980;28.882;2022-11-20T01:57:25;101059.88;;;0.49;92.14
71857;BME280;63344;46.980;28.882;2022-11-20T02:00:00;101060.78;;;0.53;92.55
71857;BME280;63344;46.980;28.882;2022-11-20T02:02:30;101052.88;;;0.50;92.59
71857;BME280;63344;46.980;28.882;2022-11-20T02:05:02;101052.91;;;0.51;92.21
71857;BME280;63344;46.980;28.882;2022-11-20T02:07:31;101070.34;;;0.51;92.11
71857;BME280;63344;46.980;28.882;2022-11-20T02:09:58;101067.69;;;0.48;91.96
71857;BME280;63344;46.980;28.882;2022-11-20T02:12:26;101057.22;;;0.48;92.17
71857;BME280;63344;46.980;28.882;2022-11-20T02:15:11;101049.41;;;0.49;92.34
71857;BME280;63344;46.980;28.882;2022-11-20T02:17:39;101053.78;;;0.52;92.35
71857;BME280;63344;46.980;28.882;2022-11-20T02:20:06;101038.13;;;0.50;92.43
71857;BME280;63344;46.980;28.882;2022-11-20T02:22:40;101038.94;;;0.48;92.67
71857;BME280;63344;46.980;28.882;2022-11-20T02:25:14;101024.94;;;0.38;93.00
71857;BME280;63344;46.980;28.882;2022-11-20T02:27:42;101018.81;;;0.34;92.95
71857;BME280;63344;46.980;28.882;2022-11-20T02:30:09;100990.84;;;0.24;93.49
71857;BME280;63344;46.980;28.882;2022-11-20T02:32:39;101016.13;;;0.27;93.64
71857;BME280;63344;46.980;28.882;2022-11-20T02:37:48;100993.47;;;0.27;94.25
71857;BME280;63344;46.980;28.882;2022-11-20T02:40:17;100983.00;;;0.26;94.46
71857;BME280;63344;46.980;28.882;2022-11-20T02:42:44;100980.41;;;0.27;94.40
71857;BME280;63344;46.980;28.882;2022-11-20T02:45:11;100983.91;;;0.29;94.64
71857;BME280;63344;46.980;28.882;2022-11-20T02:47:39;100968.22;;;0.28;94.69
71857;BME280;63344;46.980;28.882;2022-11-20T02:50:06;100954.28;;;0.27;94.68
71857;BME280;63344;46.980;28.882;2022-11-20T02:52:33;100943.88;;;0.30;94.54
71857;BME280;63344;46.980;28.882;2022-11-20T02:55:00;100945.56;;;0.25;94.46
71857;BME280;63344;46.980;28.882;2022-11-20T02:57:28;100940.34;;;0.22;94.51
71857;BME280;63344;46.980;28.882;2022-11-20T02:59:55;100950.81;;;0.27;94.51
71857;BME280;63344;46.980;28.882;2022-11-20T03:02:22;100938.59;;;0.26;95.16
71857;BME280;63344;46.980;28.882;2022-11-20T03:04:50;100943.84;;;0.27;95.06
71857;BME280;63344;46.980;28.882;2022-11-20T03:07:17;100929.03;;;0.25;94.81
71857;BME280;63344;46.980;28.882;2022-11-20T03:09:44;100919.41;;;0.19;95.04
71857;BME280;63344;46.980;28.882;2022-11-20T03:12:11;100919.44;;;0.25;94.76
71857;BME280;63344;46.980;28.882;2022-11-20T03:14:38;100929.91;;;0.25;94.85
71857;BME280;63344;46.980;28.882;2022-11-20T03:17:06;100940.38;;;0.30;95.28
71857;BME280;63344;46.980;28.882;2022-11-20T03:19:33;100914.22;;;0.22;95.16
71857;BME280;63344;46.980;28.882;2022-11-20T03:22:01;100936.00;;;0.24;95.17
71857;BME280;63344;46.980;28.882;2022-11-20T03:24:28;100941.22;;;0.26;95.01
71857;BME280;63344;46.980;28.882;2022-11-20T03:26:56;100936.91;;;0.29;95.42
71857;BME280;63344;46.980;28.882;2022-11-20T03:29:23;100939.56;;;0.32;95.41
71857;BME280;63344;46.980;28.882;2022-11-20T03:31:51;100929.94;;;0.30;95.67
71857;BME280;63344;46.980;28.882;2022-11-20T03:34:17;100917.72;;;0.26;95.70
71857;BME280;63344;46.980;28.882;2022-11-20T03:36:45;100925.59;;;0.29;95.44
71857;BME280;63344;46.980;28.882;2022-11-20T03:39:12;100915.13;;;0.29;95.58
71857;BME280;63344;46.980;28.882;2022-11-20T03:41:40;100922.09;;;0.30;95.36
71857;BME280;63344;46.980;28.882;2022-11-20T03:44:09;100924.69;;;0.30;95.33
71857;BME280;63344;46.980;28.882;2022-11-20T03:46:37;100915.13;;;0.29;95.51
71857;BME280;63344;46.980;28.882;2022-11-20T03:49:04;100907.31;;;0.33;95.82
71857;BME280;63344;46.980;28.882;2022-11-20T03:51:33;100887.25;;;0.26;96.07
71857;BME280;63344;46.980;28.882;2022-11-20T03:54:03;100888.19;;;0.34;95.85
71857;BME280;63344;46.980;28.882;2022-11-20T03:56:34;100883.81;;;0.30;95.52
71857;BME280;63344;46.980;28.882;2022-11-20T03:59:02;100890.78;;;0.33;95.63
71857;BME280;63344;46.980;28.882;2022-11-20T04:01:32;100893.38;;;0.31;95.20
71857;BME280;63344;46.980;28.882;2022-11-20T04:04:00;100890.69;;;0.24;95.18
71857;BME280;63344;46.980;28.882;2022-11-20T04:06:30;100907.31;;;0.30;95.38
71857;BME280;63344;46.980;28.882;2022-11-20T04:08:58;100912.53;;;0.33;95.27
71857;BME280;63344;46.980;28.882;2022-11-20T04:11:28;100894.19;;;0.26;95.49
71857;BME280;63344;46.980;28.882;2022-11-20T04:13:56;100894.25;;;0.30;95.43
71857;BME280;63344;46.980;28.882;2022-11-20T04:16:25;100888.16;;;0.28;95.21
71857;BME280;63344;46.980;28.882;2022-11-20T04:18:57;100876.81;;;0.28;95.52
71857;BME280;63344;46.980;28.882;2022-11-20T04:21:26;100869.81;;;0.25;95.77
71857;BME280;63344;46.980;28.882;2022-11-20T04:23:53;100860.25;;;0.24;95.91
71857;BME280;63344;46.980;28.882;2022-11-20T04:26:23;100864.59;;;0.22;96.04
71857;BME280;63344;46.980;28.882;2022-11-20T04:28:50;100851.50;;;0.19;96.10
71857;BME280;63344;46.980;28.882;2022-11-20T04:31:20;100855.91;;;0.26;95.83
71857;BME280;63344;46.980;28.882;2022-11-20T04:33:47;100855.03;;;0.26;95.34
71857;BME280;63344;46.980;28.882;2022-11-20T04:36:17;100848.91;;;0.24;95.48
71857;BME280;63344;46.980;28.882;2022-11-20T04:38:55;100828.84;;;0.15;96.10
71857;BME280;63344;46.980;28.882;2022-11-20T04:41:25;100826.25;;;0.16;96.10
71857;BME280;63344;46.980;28.882;2022-11-20T04:43:56;100837.59;;;0.23;96.07
71857;BME280;63344;46.980;28.882;2022-11-20T04:46:27;100836.72;;;0.21;96.13
71857;BME280;63344;46.980;28.882;2022-11-20T04:48:55;100833.25;;;0.24;96.29
71857;BME280;63344;46.980;28.882;2022-11-20T04:51:23;100836.78;;;0.30;96.18
71857;BME280;63344;46.980;28.882;2022-11-20T04:53:50;100821.09;;;0.24;96.25
71857;BME280;63344;46.980;28.882;2022-11-20T04:56:18;100812.34;;;0.24;96.20
71857;BME280;63344;46.980;28.882;2022-11-20T04:58:45;100805.41;;;0.26;96.00
71857;BME280;63344;46.980;28.882;2022-11-20T05:01:15;100813.28;;;0.30;96.08
71857;BME280;63344;46.980;28.882;2022-11-20T05:03:43;100828.13;;;0.39;96.22
71857;BME280;63344;46.980;28.882;2022-11-20T05:06:13;100821.16;;;0.41;96.26
71857;BME280;63344;46.980;28.882;2022-11-20T05:08:41;100810.72;;;0.36;95.86
71857;BME280;63344;46.980;28.882;2022-11-20T05:11:11;100808.97;;;0.42;95.63
71857;BME280;63344;46.980;28.882;2022-11-20T05:13:39;100802.88;;;0.39;95.87
71857;BME280;63344;46.980;28.882;2022-11-20T05:16:09;100798.56;;;0.46;95.38
71857;BME280;63344;46.980;28.882;2022-11-20T05:18:37;100786.34;;;0.44;95.44
71857;BME280;63344;46.980;28.882;2022-11-20T05:21:06;100759.34;;;0.38;95.99
71857;BME280;63344;46.980;28.882;2022-11-20T05:23:35;100769.78;;;0.38;95.99
71857;BME280;63344;46.980;28.882;2022-11-20T05:26:05;100756.78;;;0.46;95.36
71857;BME280;63344;46.980;28.882;2022-11-20T05:28:34;100765.50;;;0.48;95.75
71857;BME280;63344;46.980;28.882;2022-11-20T05:31:10;100755.91;;;0.49;95.99
71857;BME280;63344;46.980;28.882;2022-11-20T05:33:40;100765.50;;;0.53;95.79
71857;BME280;63344;46.980;28.882;2022-11-20T05:36:09;100748.06;;;0.50;95.71
71857;BME280;63344;46.980;28.882;2022-11-20T05:38:36;100740.22;;;0.52;95.49
71857;BME280;63344;46.980;28.882;2022-11-20T05:43:38;100732.41;;;0.53;95.83
71857;BME280;63344;46.980;28.882;2022-11-20T05:46:09;100709.72;;;0.49;95.95
71857;BME280;63344;46.980;28.882;2022-11-20T05:48:38;100720.22;;;0.58;95.95
71857;BME280;63344;46.980;28.882;2022-11-20T05:51:10;100726.31;;;0.64;96.27
71857;BME280;63344;46.980;28.882;2022-11-20T05:53:37;100730.69;;;0.62;96.11
71857;BME280;63344;46.980;28.882;2022-11-20T05:56:17;100751.66;;;0.72;96.14
71857;BME280;63344;46.980;28.882;2022-11-20T05:58:45;100738.53;;;0.68;96.01
71857;BME280;63344;46.980;28.882;2022-11-20T06:03:45;100747.31;;;0.81;96.06
71857;BME280;63344;46.980;28.882;2022-11-20T06:06:25;100729.00;;;0.77;96.04
71857;BME280;63344;46.980;28.882;2022-11-20T06:08:53;100729.88;;;0.83;95.47
71857;BME280;63344;46.980;28.882;2022-11-20T06:11:21;100719.44;;;0.83;96.08
71857;BME280;63344;46.980;28.882;2022-11-20T06:13:49;100725.53;;;0.86;95.76
71857;BME280;63344;46.980;28.882;2022-11-20T06:16:22;100704.63;;;0.91;96.42
71857;BME280;63344;46.980;28.882;2022-11-20T06:18:50;100705.50;;;0.87;96.06
71857;BME280;63344;46.980;28.882;2022-11-20T06:21:19;100716.84;;;0.95;96.44
71857;BME280;63344;46.980;28.882;2022-11-20T06:23:47;100718.59;;;0.96;96.08
71857;BME280;63344;46.980;28.882;2022-11-20T06:26:20;100736.91;;;0.96;96.21
71857;BME280;63344;46.980;28.882;2022-11-20T06:28:49;100749.09;;;0.97;96.04
71857;BME280;63344;46.980;28.882;2022-11-20T06:31:19;100764.81;;;1.05;96.13
71857;BME280;63344;46.980;28.882;2022-11-20T06:33:47;100738.63;;;0.95;95.82
71857;BME280;63344;46.980;28.882;2022-11-20T06:36:16;100725.56;;;0.94;96.17
71857;BME280;63344;46.980;28.882;2022-11-20T06:38:44;100736.91;;;1.02;96.13
71857;BME280;63344;46.980;28.882;2022-11-20T06:41:16;100749.09;;;1.08;96.12
71857;BME280;63344;46.980;28.882;2022-11-20T06:43:46;100729.06;;;1.02;95.94
71857;BME280;63344;46.980;28.882;2022-11-20T06:46:16;100705.50;;;0.91;95.86
71857;BME280;63344;46.980;28.882;2022-11-20T06:48:49;100702.03;;;1.03;96.28
71857;BME280;63344;46.980;28.882;2022-11-20T06:51:17;100705.50;;;1.04;95.80
71857;BME280;63344;46.980;28.882;2022-11-20T06:53:46;100692.44;;;0.94;96.48
71857;BME280;63344;46.980;28.882;2022-11-20T06:56:15;100679.38;;;0.96;96.05
71857;BME280;63344;46.980;28.882;2022-11-20T06:58:44;100690.69;;;1.06;96.48
71857;BME280;63344;46.980;28.882;2022-11-20T07:01:14;100675.00;;;1.07;96.56
71857;BME280;63344;46.980;28.882;2022-11-20T07:03:42;100678.50;;;1.06;96.80
71857;BME280;63344;46.980;28.882;2022-11-20T07:06:10;100690.72;;;1.09;96.93
71857;BME280;63344;46.980;28.882;2022-11-20T07:08:39;100696.81;;;1.15;96.91
71857;BME280;63344;46.980;28.882;2022-11-20T07:11:11;100671.53;;;1.11;96.71
71857;BME280;63344;46.980;28.882;2022-11-20T07:13:38;100638.41;;;1.06;96.97
71857;BME280;63344;46.980;28.882;2022-11-20T07:16:07;100649.75;;;1.18;96.75
71857;BME280;63344;46.980;28.882;2022-11-20T07:18:35;100661.06;;;1.17;97.36
71857;BME280;63344;46.980;28.882;2022-11-20T07:21:06;100656.72;;;1.23;97.13
71857;BME280;63344;46.980;28.882;2022-11-20T07:23:36;100664.56;;;1.29;97.41
71857;BME280;63344;46.980;28.882;2022-11-20T07:26:07;100655.84;;;1.33;97.20
71857;BME280;63344;46.980;28.882;2022-11-20T07:28:35;100641.88;;;1.35;96.69
71857;BME280;63344;46.980;28.882;2022-11-20T07:31:05;100639.28;;;1.40;96.29
71857;BME280;63344;46.980;28.882;2022-11-20T07:33:33;100634.88;;;1.45;95.48
71857;BME280;63344;46.980;28.882;2022-11-20T07:36:01;100639.25;;;1.48;95.13
71857;BME280;63344;46.980;28.882;2022-11-20T07:38:28;100616.56;;;1.45;94.45
71857;BME280;63344;46.980;28.882;2022-11-20T07:40:57;100617.47;;;1.44;94.34
71857;BME280;63344;46.980;28.882;2022-11-20T07:43:30;100647.97;;;1.51;94.27
71857;BME280;63344;46.980;28.882;2022-11-20T07:46:04;100639.25;;;1.43;93.58
71857;BME280;63344;46.980;28.882;2022-11-20T07:48:32;100634.91;;;1.47;93.85
71857;BME280;63344;46.980;28.882;2022-11-20T07:50:59;100626.16;;;1.51;94.08
71857;BME280;63344;46.980;28.882;2022-11-20T07:53:26;100616.56;;;1.54;93.70
71857;BME280;63344;46.980;28.882;2022-11-20T07:56:01;100594.78;;;1.43;93.39
71857;BME280;63344;46.980;28.882;2022-11-20T07:58:29;100613.09;;;1.54;93.41
71857;BME280;63344;46.980;28.882;2022-11-20T08:00:57;100614.81;;;1.56;92.54
71857;BME280;63344;46.980;28.882;2022-11-20T08:03:24;100586.06;;;1.50;93.24
71857;BME280;63344;46.980;28.882;2022-11-20T08:05:53;100591.28;;;1.58;93.75
71857;BME280;63344;46.980;28.882;2022-11-20T08:08:20;100589.50;;;1.58;93.25
71857;BME280;63344;46.980;28.882;2022-11-20T08:10:48;100597.38;;;1.60;93.37
71857;BME280;63344;46.980;28.882;2022-11-20T08:13:15;100588.66;;;1.56;93.12
71857;BME280;63344;46.980;28.882;2022-11-20T08:16:01;100580.81;;;1.58;93.12
71857;BME280;63344;46.980;28.882;2022-11-20T08:18:29;100565.13;;;1.50;92.27
71857;BME280;63344;46.980;28.882;2022-11-20T08:21:04;100578.19;;;1.55;92.46
71857;BME280;63344;46.980;28.882;2022-11-20T08:23:32;100586.03;;;1.53;92.07
71857;BME280;63344;46.980;28.882;2022-11-20T08:26:01;100569.47;;;1.48;91.72
71857;BME280;63344;46.980;28.882;2022-11-20T08:28:31;100569.47;;;1.45;91.81
71857;BME280;63344;46.980;28.882;2022-11-20T08:31:02;100558.16;;;1.38;91.84
71857;BME280;63344;46.980;28.882;2022-11-20T08:33:30;100571.22;;;1.43;91.81
71857;BME280;63344;46.980;28.882;2022-11-20T08:36:07;100560.78;;;1.35;92.54
71857;BME280;63344;46.980;28.882;2022-11-20T08:38:51;100544.22;;;1.32;92.72
71857;BME280;63344;46.980;28.882;2022-11-20T08:41:20;100542.47;;;1.31;92.75
71857;BME280;63344;46.980;28.882;2022-11-20T08:43:56;100531.13;;;1.38;93.13
71857;BME280;63344;46.980;28.882;2022-11-20T08:46:25;100518.94;;;1.34;93.25
71857;BME280;63344;46.980;28.882;2022-11-20T08:48:52;100531.09;;;1.43;93.50
71857;BME280;63344;46.980;28.882;2022-11-20T08:51:20;100518.91;;;1.40;93.50
71857;BME280;63344;46.980;28.882;2022-11-20T08:53:47;100528.47;;;1.49;93.54
71857;BME280;63344;46.980;28.882;2022-11-20T08:56:18;100515.38;;;1.47;93.80
71857;BME280;63344;46.980;28.882;2022-11-20T08:58:46;100505.81;;;1.46;93.28
71857;BME280;63344;46.980;28.882;2022-11-20T09:01:35;100489.28;;;1.38;93.00
71857;BME280;63344;46.980;28.882;2022-11-20T09:04:07;100461.34;;;1.38;93.05
71857;BME280;63344;46.980;28.882;2022-11-20T09:06:34;100460.47;;;1.41;93.05
71857;BME280;63344;46.980;28.882;2022-11-20T09:09:04;100443.03;;;1.38;93.49
71857;BME280;63344;46.980;28.882;2022-11-20T09:11:34;100451.72;;;1.48;93.63
71857;BME280;63344;46.980;28.882;2022-11-20T09:14:02;100441.22;;;1.53;94.15
71857;BME280;63344;46.980;28.882;2022-11-20T09:16:32;100410.72;;;1.50;93.57
71857;BME280;63344;46.980;28.882;2022-11-20T09:19:00;100400.25;;;1.49;93.75
71857;BME280;63344;46.980;28.882;2022-11-20T09:21:52;100399.34;;;1.54;93.96
71857;BME280;63344;46.980;28.882;2022-11-20T09:25:03;100399.34;;;1.54;94.25
71857;BME280;63344;46.980;28.882;2022-11-20T09:27:36;100378.41;;;1.53;94.16
71857;BME280;63344;46.980;28.882;2022-11-20T09:30:07;100394.06;;;1.61;94.26
71857;BME280;63344;46.980;28.882;2022-11-20T09:32:38;100397.59;;;1.58;94.29
71857;BME280;63344;46.980;28.882;2022-11-20T09:35:07;100402.78;;;1.61;93.96
71857;BME280;63344;46.980;28.882;2022-11-20T09:37:54;100429.78;;;1.74;94.04
71857;BME280;63344;46.980;28.882;2022-11-20T09:40:22;100428.88;;;1.78;94.59
71857;BME280;63344;46.980;28.882;2022-11-20T09:43:07;100441.91;;;1.86;93.89
71857;BME280;63344;46.980;28.882;2022-11-20T09:49:05;100437.56;;;1.85;94.00
71857;BME280;63344;46.980;28.882;2022-11-20T09:52:17;100447.19;;;1.79;93.49
71857;BME280;63344;46.980;28.882;2022-11-20T09:55:08;100480.31;;;1.84;93.07
71857;BME280;63344;46.980;28.882;2022-11-20T09:57:48;100500.44;;;1.80;93.13
71857;BME280;63344;46.980;28.882;2022-11-20T10:00:34;100496.91;;;1.79;93.73
71857;BME280;63344;46.980;28.882;2022-11-20T10:03:14;100511.69;;;1.94;93.55
71857;BME280;63344;46.980;28.882;2022-11-20T10:05:52;100502.13;;;1.89;93.09
71857;BME280;63344;46.980;28.882;2022-11-20T10:08:42;100496.03;;;1.88;93.47
71857;BME280;63344;46.980;28.882;2022-11-20T10:11:41;100496.03;;;1.85;92.79
71857;BME280;63344;46.980;28.882;2022-11-20T10:18:02;100494.34;;;1.75;93.43
71857;BME280;63344;46.980;28.882;2022-11-20T10:31:31;100461.25;;;1.55;95.22
71857;BME280;63344;46.980;28.882;2022-11-20T10:34:05;100454.31;;;1.54;95.40
71857;BME280;63344;46.980;28.882;2022-11-20T10:36:57;100449.97;;;1.50;95.72
71857;BME280;63344;46.980;28.882;2022-11-20T10:39:37;100449.13;;;1.42;96.21
71857;BME280;63344;46.980;28.882;2022-11-20T10:42:27;100443.88;;;1.44;96.86
71857;BME280;63344;46.980;28.882;2022-11-20T10:50:36;100437.78;;;1.43;97.59
71857;BME280;63344;46.980;28.882;2022-11-20T11:01:57;100446.53;;;1.30;97.83
71857;BME280;63344;46.980;28.882;2022-11-20T11:04:58;100453.53;;;1.29;97.43
71857;BME280;63344;46.980;28.882;2022-11-20T11:07:54;100447.44;;;1.30;97.75
71857;BME280;63344;46.980;28.882;2022-11-20T11:13:25;100452.66;;;1.26;98.05
71857;BME280;63344;46.980;28.882;2022-11-20T11:15:56;100473.59;;;1.32;98.30
71857;BME280;63344;46.980;28.882;2022-11-20T11:18:27;100461.34;;;1.35;98.31
71857;BME280;63344;46.980;28.882;2022-11-20T11:20:57;100436.06;;;1.31;98.60
71857;BME280;63344;46.980;28.882;2022-11-20T11:23:42;100441.28;;;1.42;98.34
71857;BME280;63344;46.980;28.882;2022-11-20T11:26:26;100449.13;;;1.39;97.80
71857;BME280;63344;46.980;28.882;2022-11-20T11:29:03;100462.19;;;1.44;97.70
71857;BME280;63344;46.980;28.882;2022-11-20T11:31:34;100436.94;;;1.38;97.64
71857;BME280;63344;46.980;28.882;2022-11-20T11:34:27;100420.34;;;1.42;97.79
71857;BME280;63344;46.980;28.882;2022-11-20T11:36:57;100403.78;;;1.37;98.09
71857;BME280;63344;46.980;28.882;2022-11-20T11:39:28;100366.25;;;1.41;98.21
71857;BME280;63344;46.980;28.882;2022-11-20T11:41:58;100364.53;;;1.40;98.32
71857;BME280;63344;46.980;28.882;2022-11-20T11:44:34;100374.97;;;1.42;97.85
71857;BME280;63344;46.980;28.882;2022-11-20T11:47:31;100391.56;;;1.42;97.85
71857;BME280;63344;46.980;28.882;2022-11-20T11:50:18;100397.69;;;1.35;97.90
71857;BME280;63344;46.980;28.882;2022-11-20T12:00:29;100436.06;;;1.39;97.71
71857;BME280;63344;46.980;28.882;2022-11-20T12:03:17;100466.50;;;1.55;97.77
71857;BME280;63344;46.980;28.882;2022-11-20T12:05:49;100463.03;;;1.55;97.58
71857;BME280;63344;46.980;28.882;2022-11-20T12:08:23;100451.69;;;1.51;97.52
71857;BME280;63344;46.980;28.882;2022-11-20T12:11:13;100435.13;;;1.54;96.89
71857;BME280;63344;46.980;28.882;2022-11-20T12:16:33;100441.19;;;1.62;96.99
71857;BME280;63344;46.980;28.882;2022-11-20T12:19:07;100447.28;;;1.59;96.95
71857;BME280;63344;46.980;28.882;2022-11-20T12:30:11;100421.97;;;1.66;96.60
71857;BME280;63344;46.980;28.882;2022-11-20T12:33:04;100436.78;;;1.66;96.40
71857;BME280;63344;46.980;28.882;2022-11-20T12:41:51;100392.28;;;1.66;96.45
71857;BME280;63344;46.980;28.882;2022-11-20T13:01:55;100409.69;;;1.76;96.33
71857;BME280;63344;46.980;28.882;2022-11-20T13:07:10;100399.22;;;1.76;96.45
71857;BME280;63344;46.980;28.882;2022-11-20T13:09:48;100388.75;;;1.76;96.60
71857;BME280;63344;46.980;28.882;2022-11-20T13:20:16;100416.66;;;1.78;96.61
71857;BME280;63344;46.980;28.882;2022-11-20T13:22:47;100412.28;;;1.79;96.90
71857;BME280;63344;46.980;28.882;2022-11-20T13:25:40;100434.03;;;1.87;96.94
71857;BME280;63344;46.980;28.882;2022-11-20T13:28:30;100428.81;;;1.86;96.74
71857;BME280;63344;46.980;28.882;2022-11-20T13:30:58;100443.66;;;1.84;96.64
71857;BME280;63344;46.980;28.882;2022-11-20T13:33:35;100438.38;;;1.93;96.66
71857;BME280;63344;46.980;28.882;2022-11-20T13:36:24;100421.81;;;1.92;96.78
71857;BME280;63344;46.980;28.882;2022-11-20T13:38:53;100432.19;;;2.03;97.25
71857;BME280;63344;46.980;28.882;2022-11-20T13:41:31;100431.34;;;2.01;97.05
71857;BME280;63344;46.980;28.882;2022-11-20T13:44:33;100389.53;;;1.90;96.91
71857;BME280;63344;46.980;28.882;2022-11-20T13:47:02;100403.44;;;1.95;97.12
71857;BME280;63344;46.980;28.882;2022-11-20T13:49:39;100419.09;;;2.05;97.07
71857;BME280;63344;46.980;28.882;2022-11-20T13:55:40;100418.25;;;2.01;96.75
71857;BME280;63344;46.980;28.882;2022-11-20T14:01:14;100406.91;;;2.02;97.05
71857;BME280;63344;46.980;28.882;2022-11-20T14:03:43;100421.75;;;2.00;96.94
71857;BME280;63344;46.980;28.882;2022-11-20T14:06:40;100407.78;;;1.99;97.02
71857;BME280;63344;46.980;28.882;2022-11-20T14:09:26;100395.66;;;1.88;96.45
71857;BME280;63344;46.980;28.882;2022-11-20T14:11:54;100403.44;;;1.95;96.75
71857;BME280;63344;46.980;28.882;2022-11-20T14:14:26;100382.56;;;1.88;96.88
71857;BME280;63344;46.980;28.882;2022-11-20T14:17:19;100370.34;;;1.88;96.89
71857;BME280;63344;46.980;28.882;2022-11-20T14:19:51;100345.97;;;1.75;96.86
71857;BME280;63344;46.980;28.882;2022-11-20T14:22:22;100365.13;;;1.84;96.77
71857;BME280;63344;46.980;28.882;2022-11-20T14:25:03;100372.06;;;1.89;97.02
71857;BME280;63344;46.980;28.882;2022-11-20T14:27:36;100373.81;;;1.90;97.28
71857;BME280;63344;46.980;28.882;2022-11-20T14:30:05;100386.00;;;1.91;97.01
71857;BME280;63344;46.980;28.882;2022-11-20T14:32:34;100376.38;;;1.96;97.53
71857;BME280;63344;46.980;28.882;2022-11-20T14:35:07;100359.81;;;1.94;97.74
71857;BME280;63344;46.980;28.882;2022-11-20T14:37:38;100325.84;;;1.84;97.58
71857;BME280;63344;46.980;28.882;2022-11-20T14:40:31;100320.53;;;1.93;97.74
71857;BME280;63344;46.980;28.882;2022-11-20T14:42:59;100317.06;;;1.92;97.77
71857;BME280;63344;46.980;28.882;2022-11-20T14:45:27;100330.16;;;1.94;97.69
71857;BME280;63344;46.980;28.882;2022-11-20T14:47:56;100350.19;;;1.93;97.84
71857;BME280;63344;46.980;28.882;2022-11-20T14:50:27;100352.75;;;2.01;97.97
71857;BME280;63344;46.980;28.882;2022-11-20T14:53:00;100345.78;;;2.02;97.70
71857;BME280;63344;46.980;28.882;2022-11-20T14:58:19;100311.81;;;1.92;98.00
71857;BME280;63344;46.980;28.882;2022-11-20T15:00:59;100316.09;;;2.04;97.89
71857;BME280;63344;46.980;28.882;2022-11-20T15:03:35;100316.16;;;1.96;97.39
71857;BME280;63344;46.980;28.882;2022-11-20T15:06:09;100318.81;;;1.90;97.39
71857;BME280;63344;46.980;28.882;2022-11-20T15:08:37;100303.13;;;1.89;97.11